Station GRRT2 - 8771486 - Galveston RR Bridge, TX Image indicating link to RSS feed of recent meteorological observations for station GRRT2


Conditions at GRRT2 as of
(10:30 am CDT)
1530 GMT on 09/04/2026:
     

Click on the graph icon in the table below to see a time series plot of the last five days of that observation.

5-day plot - Wind Direction Wind Direction (WDIR): SE ( 140 deg true )
5-day plot - Wind Speed Wind Speed (WSPD): 1.9 kts
5-day plot - Wind Gust Wind Gust (GST): 4.1 kts
5-day plot - Atmospheric Pressure Atmospheric Pressure (PRES):29.95 in
5-day plot - Air Temperature Air Temperature (ATMP): 76.6 °F
5-day plot - Water Temperature Water Temperature (WTMP): 84.9 °F
5-day plot - Wind Speed at 10 Meters Wind Speed at 10 meters (WSPD10M): 1.9 kts
5-day plot - Wind Speed at 20 Meters Wind Speed at 20 meters (WSPD20M): 1.9 kts
5-day plot -  Wind Speed, Wind Gust and Atmospheric Pressure Combined plot of Wind Speed, Gust, and Air Pressure
Previous observations
TIME
(CDT)
5-day plot - Wind Direction
WDIR
 
5-day plot - Wind Speed
WSPD
kts
5-day plot - Wind Gust
GST
kts
5-day plot - Wave Height
WVHT
ft
5-day plot - Dominant Wave Period
DPD
sec
5-day plot - Average Wave Period
APD
sec
5-day plot - Mean Wave Direction
MWD
 
5-day plot - Atmospheric Pressure
PRES
in
5-day plot - Pressure Tendency
PTDY
in
5-day plot - Air Temperature
ATMP
°F
5-day plot - Water Temperature
WTMP
°F
5-day plot - Dew Point
DEWP
°F
5-day plot - Salinity
SAL
psu
5-day plot - Visibility
VIS
nmi
5-day plot - Tide (above MLLW)
TIDE
ft
2026-09-04 10:24 amENE 4.1 8.9----29.96- 75.9 84.9----
2026-09-04 10:18 am N 2.9 2.9----29.96-- 84.7----
2026-09-04 10:12 amWNW 2.9 14.0----29.96-- 84.9----
2026-09-04 10:06 amESE 11.1 13.0----29.96-- 84.9----
2026-09-04 10:00 am SE 5.1 6.0----29.96+0.07 74.8 84.7----
2026-09-04 09:54 amSSE 5.1 8.0----29.96- 73.8 84.7----
2026-09-04 09:48 am NW 7.0 12.0----29.95- 73.6 84.7----
2026-09-04 09:42 am W 8.9 12.0----29.96- 73.8 84.9----
2026-09-04 09:36 amWSW 7.0 15.0----29.96- 73.6 84.9----
2026-09-04 09:30 amWSW 15.0 24.1----29.96- 74.8 85.1----
2026-09-04 09:24 amSSW 7.0 9.9----29.95- 81.0 85.1----
2026-09-04 09:18 amENE 8.0 13.0----29.93-- 85.1----
2026-09-04 09:12 am NE 11.1 12.0----29.92-- 85.1----
2026-09-04 09:06 amENE 8.0 9.9----29.92-- 85.1----
2026-09-04 09:00 am E 8.0 9.9----29.92+0.03 82.8 85.1----
2026-09-04 08:54 amENE 5.1 6.0----29.92- 83.1 85.1----
2026-09-04 08:48 am E 6.0 7.0----29.91- 82.8 85.1----
2026-09-04 08:42 am E 6.0 7.0----29.91- 82.6 85.1----
2026-09-04 08:36 am E 5.1 6.0----29.92- 82.6 85.1----
2026-09-04 08:30 amENE 4.1 7.0----29.91- 82.6 85.1----
2026-09-04 08:24 am E 6.0 8.0----29.91- 82.8 85.1----
2026-09-04 08:18 amESE 7.0 8.0----29.91-- 85.1----
2026-09-04 08:12 am E 4.1 5.1----29.91-- 85.1----
2026-09-04 08:06 am NE 1.0 1.9----29.91-- 85.1----
2026-09-04 08:00 am- 0.0 1.0----29.91+0.04 84.2 85.1----
2026-09-04 07:54 amSSW 1.0 1.9----29.91- 84.2 85.1----
2026-09-04 07:48 amSSW 1.9 2.9----29.91- 84.0 85.1----
2026-09-04 07:42 am SW 1.9 2.9----29.90- 83.8 85.1----
2026-09-04 07:36 am SW 1.9 1.9----29.90- 83.7 85.1----
2026-09-04 07:30 am- 0.0 1.0----29.90- 83.7 85.1----
2026-09-04 07:24 amWSW 1.0 1.9----29.89- 83.5 85.1----
2026-09-04 07:18 am W 1.0 1.9----29.89-- 85.1----
2026-09-04 07:12 am- 0.0 1.0----29.89-- 85.1----
2026-09-04 07:06 am- 0.0 1.9----29.89-- 85.1----
2026-09-04 07:00 am S 1.9 1.9----29.89+0.02 83.8 85.1----
2026-09-04 06:54 am S 1.0 1.9----29.89- 83.8 85.1----
2026-09-04 06:48 am S 1.0 1.9----29.88-- 85.1----
2026-09-04 06:42 am S 1.9 2.9----29.88-- 85.1----
2026-09-04 06:36 amSSE 1.9 4.1----29.88-- 85.1----
2026-09-04 06:30 am S 1.9 2.9----29.88- 84.2 85.1----
2026-09-04 06:24 am S 2.9 2.9----29.88- 84.2 85.1----
2026-09-04 06:18 am S 2.9 4.1----29.88-- 85.1----
2026-09-04 06:12 am S 2.9 5.1----29.88-- 85.1----
2026-09-04 06:06 am S 2.9 4.1----29.89-- 85.1----
2026-09-04 06:00 am S 2.9 5.1----29.89+0.02 84.2 85.1----
2026-09-04 05:54 am S 4.1 5.1----29.89- 84.2 85.1----
2026-09-04 05:48 am S 4.1 5.1----29.88-- 85.3----
2026-09-04 05:42 amSSW 4.1 5.1----29.88-- 85.3----
2026-09-04 05:36 amSSW 4.1 6.0----29.88-- 85.3----
2026-09-04 05:30 am S 5.1 6.0----29.88- 84.2 85.3----
2026-09-04 05:24 am S 5.1 6.0----29.88- 84.4 85.3----
2026-09-04 05:18 am S 5.1 7.0----29.87-- 85.3----
2026-09-04 05:12 am S 5.1 8.0----29.87-- 85.3----
2026-09-04 05:06 am S 6.0 8.0----29.87-- 85.3----
2026-09-04 05:00 amSSW 6.0 7.0----29.87+0.00 84.2 85.3----
2026-09-04 04:54 am S 5.1 7.0----29.87- 84.4 85.3----
2026-09-04 04:48 am S 6.0 8.0----29.87- 84.4 85.3----
2026-09-04 04:42 amSSW 6.0 7.0----29.87- 84.2 85.3----
2026-09-04 04:36 amSSW 5.1 7.0----29.87- 84.4 85.3----
2026-09-04 04:30 am S 6.0 8.0----29.87- 84.2 85.3----
2026-09-04 04:24 amSSW 5.1 7.0----29.86- 84.2 85.3----
2026-09-04 04:18 am S 5.1 7.0----29.86-- 85.5----
2026-09-04 04:12 am S 5.1 7.0----29.86-- 85.5----
2026-09-04 04:06 am S 5.1 7.0----29.87-- 85.5----
2026-09-04 04:00 am S 7.0 8.0----29.87-0.01 84.4 85.3----
2026-09-04 03:54 am S 6.0 8.9----29.86- 84.6 85.3----
2026-09-04 03:48 am S 6.0 8.9----29.86- 84.4 85.3----
2026-09-04 03:42 am S 7.0 9.9----29.86- 84.6 85.3----
2026-09-04 03:36 am S 7.0 9.9----29.86- 84.4 85.3----
2026-09-04 03:30 am S 7.0 8.9----29.86- 84.6 85.3----
2026-09-04 03:24 am S 7.0 8.9----29.86- 84.6 85.5----
2026-09-04 03:18 am S 7.0 8.9----29.86- 84.4 85.5----
2026-09-04 03:12 am S 7.0 8.9----29.86- 84.4 85.5----
2026-09-04 03:06 am S 7.0 8.9----29.86- 84.4 85.5----
2026-09-04 03:00 am S 7.0 8.9----29.86-0.02 84.6 85.5----
2026-09-04 02:54 am S 7.0 8.0----29.86- 84.6 85.5----
2026-09-04 02:48 am S 8.0 8.9----29.87- 84.6 85.5----
2026-09-04 02:42 am S 7.0 9.9----29.87- 84.6 85.5----
2026-09-04 02:36 am S 8.0 9.9----29.87- 84.6 85.5----
2026-09-04 02:30 am S 7.0 11.1----29.87- 84.7 85.6----
2026-09-04 02:24 am S 8.9 11.1----29.87- 84.6 85.6----
2026-09-04 02:18 am S 8.9 11.1----29.87-- 85.6----
2026-09-04 02:12 am S 8.0 11.1----29.87-- 85.6----
2026-09-04 02:06 amSSE 8.0 11.1----29.87-- 85.8----
2026-09-04 02:00 amSSE 8.0 11.1----29.88-0.01 84.7 85.8----
2026-09-04 01:54 amSSE 8.9 11.1----29.88- 84.7 85.8----
2026-09-04 01:48 amSSE 9.9 13.0----29.88- 84.7 85.8----
2026-09-04 01:42 amSSE 8.0 12.0----29.88- 84.7 85.8----
2026-09-04 01:36 amSSE 9.9 12.0----29.88- 84.7 85.8----
2026-09-04 01:30 amSSE 8.9 11.1----29.88- 84.7 85.8----
2026-09-04 01:24 amSSE 11.1 13.0----29.87- 84.7 86.0----
2026-09-04 01:18 amSSE 9.9 13.0----29.87-- 86.0----
2026-09-04 01:12 am S 9.9 13.0----29.88-- 86.0----
2026-09-04 01:06 amSSE 11.1 14.0----29.88-- 86.0----
2026-09-04 01:00 am S 8.0 12.0----29.88-0.01 84.7 86.0----
2026-09-04 12:54 am S 8.9 11.1----29.88- 84.6 86.0----
2026-09-04 12:48 am S 8.9 13.0----29.88-- 86.0----
2026-09-04 12:42 amSSE 8.9 12.0----29.88-- 86.0----
2026-09-04 12:36 amSSE 8.0 13.0----29.88-- 86.2----
2026-09-04 12:30 amSSE 8.0 11.1----29.88- 84.7 86.2----
2026-09-04 12:24 amSSE 8.0 9.9----29.88- 84.7 86.2----
2026-09-04 12:18 amSSE 8.0 11.1----29.88-- 86.2----
2026-09-04 12:12 amSSE 8.9 12.0----29.88-- 86.4----
2026-09-04 12:06 amSSE 8.0 12.0----29.88-- 86.4----
2026-09-04 12:00 amSSE 7.0 8.9----29.88+0.00 84.6 86.4----
2026-09-03 11:54 pmSSE 8.0 9.9----29.88- 84.7 86.4----
2026-09-03 11:48 pmSSE 7.0 9.9----29.88-- 86.5----
2026-09-03 11:42 pmSSE 7.0 11.1----29.88-- 86.5----
2026-09-03 11:36 pm SE 8.0 12.0----29.88-- 86.5----
2026-09-03 11:30 pmSSE 7.0 12.0----29.88- 84.7 86.7----
2026-09-03 11:24 pm SE 8.0 12.0----29.88- 84.9 86.7----
2026-09-03 11:18 pm SE 8.0 12.0----29.88-- 86.7----
2026-09-03 11:12 pm SE 9.9 13.0----29.88-- 86.7----
2026-09-03 11:06 pm SE 9.9 12.0----29.89-- 86.7----
2026-09-03 11:00 pm SE 9.9 13.0----29.89+0.03 84.9 86.7----
2026-09-03 10:54 pm SE 9.9 13.0----29.88- 84.9 86.9----
2026-09-03 10:48 pm SE 8.9 12.0----29.89- 84.9 86.9----
2026-09-03 10:42 pm SE 8.9 12.0----29.89- 84.9 87.1----
2026-09-03 10:36 pm SE 9.9 13.0----29.89- 84.9 87.1----
2026-09-03 10:30 pm SE 8.0 11.1----29.89- 84.7 87.1----
2026-09-03 10:24 pm SE 8.0 9.9----29.89- 84.7 87.1----
2026-09-03 10:18 pm SE 8.0 9.9----29.89-- 87.1----
2026-09-03 10:12 pm SE 8.0 12.0----29.89-- 87.1----
2026-09-03 10:06 pm SE 8.0 11.1----29.88-- 87.1----
2026-09-03 10:00 pm SE 8.0 12.0----29.89+0.02 84.6 87.1----
2026-09-03 09:54 pm SE 8.9 12.0----29.89- 84.4 87.1----
2026-09-03 09:48 pm SE 8.9 12.0----29.88- 84.2 87.1----
2026-09-03 09:42 pmESE 8.0 12.0----29.88- 84.4 87.1----
2026-09-03 09:36 pmESE 8.0 11.1----29.88- 84.2 87.1----
2026-09-03 09:30 pmESE 8.9 11.1----29.88- 84.4 87.1----
2026-09-03 09:24 pm SE 7.0 8.9----29.88- 84.4 87.1----
2026-09-03 09:18 pm SE 8.0 11.1----29.88-- 87.1----
2026-09-03 09:12 pm SE 6.0 8.9----29.88-- 87.1----
2026-09-03 09:06 pm SE 7.0 8.9----29.88-- 87.1----
2026-09-03 09:00 pm SE 7.0 9.9----29.88+0.02 84.7 87.1----
2026-09-03 08:54 pm SE 7.0 9.9----29.87- 84.7 87.1----
2026-09-03 08:48 pmESE 7.0 9.9----29.87-- 87.1----
2026-09-03 08:42 pm SE 8.0 11.1----29.87-- 87.3----
2026-09-03 08:36 pmESE 9.9 12.0----29.86-- 87.3----
2026-09-03 08:30 pm SE 6.0 8.9----29.86- 84.9 87.1----
2026-09-03 08:24 pm SE 8.0 8.9----29.86- 84.7 87.3----
2026-09-03 08:18 pm SE 8.0 8.9----29.86-- 87.1----
2026-09-03 08:12 pm SE 6.0 8.0----29.86-- 87.1----
2026-09-03 08:06 pm SE 6.0 8.0----29.86-- 87.1----
2026-09-03 08:00 pm SE 6.0 8.0----29.86-0.02 84.9 87.1----
2026-09-03 07:54 pm SE 5.1 8.0----29.86- 84.7 87.1----
2026-09-03 07:48 pm SE 6.0 8.0----29.86-- 87.1----
2026-09-03 07:42 pm SE 6.0 8.9----29.86-- 87.1----
2026-09-03 07:36 pm SE 6.0 8.0----29.86-- 87.1----
2026-09-03 07:30 pm SE 6.0 8.0----29.86- 84.7 87.1----
2026-09-03 07:24 pm SE 7.0 8.9----29.86- 84.7 87.1----
2026-09-03 07:18 pm SE 7.0 8.9----29.86-- 87.1----
2026-09-03 07:12 pm SE 8.0 8.9----29.86-- 87.1----
2026-09-03 07:06 pm SE 6.0 9.9----29.86-- 87.1----
2026-09-03 07:00 pmESE 8.0 11.1----29.86-0.03 84.7 87.1----
2026-09-03 06:54 pmESE 8.0 11.1----29.86- 84.7 87.1----
2026-09-03 06:48 pmESE 6.0 9.9----29.86-- 87.3----
2026-09-03 06:42 pmESE 6.0 8.9----29.86-- 87.3----
2026-09-03 06:36 pmESE 8.0 9.9----29.86-- 87.3----
2026-09-03 06:30 pmESE 7.0 9.9----29.86- 85.1 87.3----
2026-09-03 06:24 pm E 8.9 12.0----29.86- 85.3 87.3----
2026-09-03 06:18 pmESE 8.9 11.1----29.86-- 87.3----
2026-09-03 06:12 pm E 8.9 12.0----29.86-- 87.3----
2026-09-03 06:06 pm E 9.9 12.0----29.85-- 87.3----
2026-09-03 06:00 pmESE 8.9 11.1----29.85-0.04- 87.3----
2026-09-03 05:54 pm E 9.9 13.0----29.86-- 87.3----
2026-09-03 05:48 pm E 9.9 15.0----29.86- 85.6 87.3----
2026-09-03 05:42 pm E 12.0 14.0----29.86- 85.6 87.3----
2026-09-03 05:36 pm E 11.1 13.0----29.87- 85.8 87.4----
2026-09-03 05:30 pm E 9.9 13.0----29.87- 86.0 87.4----
2026-09-03 05:24 pm E 9.9 14.0----29.87- 85.8 87.4----
2026-09-03 05:18 pm E 9.9 13.0----29.87-- 87.4----
2026-09-03 05:12 pm E 11.1 14.0----29.87-- 87.4----
2026-09-03 05:06 pm E 9.9 13.0----29.88-- 87.4----
2026-09-03 05:00 pm E 9.9 13.0----29.88-0.03 87.1 87.4----
2026-09-03 04:54 pm E 8.9 12.0----29.88- 87.1 87.6----
2026-09-03 04:48 pm E 8.9 9.9----29.89- 87.8 87.6----
2026-09-03 04:42 pm E 8.0 9.9----29.89- 87.6 87.6----
2026-09-03 04:36 pmESE 8.0 9.9----29.90- 87.3 87.6----
2026-09-03 04:30 pm E 6.0 8.9----29.89- 87.6 87.6----
2026-09-03 04:24 pmESE 8.0 11.1----29.89- 86.4 87.4----
2026-09-03 04:18 pm E 6.0 8.9----29.89-- 87.4----
2026-09-03 04:12 pm E 8.0 9.9----29.89-- 87.4----
2026-09-03 04:06 pm E 8.9 11.1----29.89-- 87.4----
2026-09-03 04:00 pm E 9.9 13.0----29.89-0.03 86.4 87.4----
2026-09-03 03:54 pm E 9.9 14.0----29.89- 86.4 87.4----
2026-09-03 03:48 pm E 8.9 12.0----29.89- 86.7 87.6----
2026-09-03 03:42 pm E 8.9 12.0----29.89- 86.5 87.6----
2026-09-03 03:36 pm E 9.9 12.0----29.89- 86.2 87.6----
2026-09-03 03:30 pm E 11.1 13.0----29.89- 86.5 87.6----
2026-09-03 03:24 pm E 8.9 11.1----29.89- 87.1 87.6----
2026-09-03 03:18 pm E 8.9 11.1----29.89-- 87.6----
2026-09-03 03:12 pm E 7.0 9.9----29.89-- 87.6----
2026-09-03 03:06 pm E 8.0 8.9----29.89-- 87.6----
2026-09-03 03:00 pmENE 7.0 8.0----29.90-0.04 85.6 87.6----
2026-09-03 02:54 pmENE 6.0 7.0----29.90- 85.3 87.6----
2026-09-03 02:48 pmENE 6.0 8.0----29.90- 85.3 87.4----
2026-09-03 02:42 pm NE 7.0 8.9----29.90- 84.7 87.4----
2026-09-03 02:36 pmENE 7.0 9.9----29.90- 84.7 87.3----
2026-09-03 02:30 pmENE 8.0 9.9----29.90- 84.9 87.3----
2026-09-03 02:24 pmENE 7.0 8.9----29.90- 84.9 87.3----
2026-09-03 02:18 pmENE 8.0 12.0----29.90-- 87.3----
2026-09-03 02:12 pmENE 7.0 9.9----29.90-- 87.1----
2026-09-03 02:06 pm NE 8.0 12.0----29.90-- 87.1----
2026-09-03 02:00 pmNNE 11.1 13.0----29.91-0.02 83.5 87.1----
2026-09-03 01:54 pmNNE 6.0 9.9----29.91- 84.4 87.1----
2026-09-03 01:48 pmNNE 8.9 13.0----29.91- 83.5 86.9----
2026-09-03 01:42 pmENE 9.9 12.0----29.91- 84.6 86.9----
2026-09-03 01:36 pm E 8.9 13.0----29.92- 85.1 86.7----
2026-09-03 01:30 pm NE 7.0 12.0----29.91- 85.3 86.7----
2026-09-03 01:24 pm NE 11.1 12.0----29.92- 84.6 86.5----
2026-09-03 01:18 pm NE 8.9 11.1----29.92-- 86.5----
2026-09-03 01:12 pm NE 5.1 7.0----29.92-- 86.5----
2026-09-03 01:06 pm E 1.9 8.0----29.92-- 86.4----
2026-09-03 01:00 pm NE 6.0 7.0----29.92+0.00 87.1 86.4----
2026-09-03 12:54 pmENE 4.1 5.1----29.92- 88.5 86.2----
2026-09-03 12:48 pmESE 1.9 5.1----29.92-- 86.0----
2026-09-03 12:42 pm E 2.9 5.1----29.92-- 85.8----
2026-09-03 12:36 pm E 2.9 4.1----29.93-- 85.8----
2026-09-03 12:30 pm SE 1.9 2.9----29.93- 87.6 85.6----
2026-09-03 12:24 pmSSW 1.9 2.9----29.93- 89.4 85.5----
2026-09-03 12:18 pmSSW 1.9 2.9----29.93-- 85.5----
2026-09-03 12:12 pm SW 1.9 1.9----29.93-- 85.3----
2026-09-03 12:06 pm SW 1.0 5.1----29.94-- 85.3----
2026-09-03 12:00 pm NE 4.1 6.0----29.94+0.00 87.8 85.3----
2026-09-03 11:54 am E 1.0 2.9----29.94- 88.5 85.1----
2026-09-03 11:48 amNNE 1.9 1.9----29.93- 88.2 85.1----
2026-09-03 11:42 am- 0.0 1.9----29.93- 87.8 84.9----
2026-09-03 11:36 amENE 1.9 4.1----29.93- 87.6 84.9----
2026-09-03 11:30 amENE 2.9 5.1----29.93- 86.9 84.7----
2026-09-03 11:24 am E 1.9 2.9----29.93- 87.6 84.7----
2026-09-03 11:18 am E 1.0 1.9----29.93-- 84.6----
2026-09-03 11:12 amNNE 2.9 4.1----29.93-- 84.6----
2026-09-03 11:06 amENE 2.9 4.1----29.93-- 84.6----
2026-09-03 11:00 amENE 4.1 4.1----29.93+0.00 85.5 84.6----
2026-09-03 10:54 am NE 4.1 5.1----29.93- 84.6 84.6----